sensor_id;sensor_type;location;lat;lon;timestamp;P1;durP1;ratioP1;P2;durP2;ratioP2
21046;SDS011;10682;50.874;3.656;2023-01-26T00:01:47;146.47;;;35.23;;
21046;SDS011;10682;50.874;3.656;2023-01-26T00:04:15;144.97;;;36.57;;
21046;SDS011;10682;50.874;3.656;2023-01-26T00:06:44;138.47;;;35.67;;
21046;SDS011;10682;50.874;3.656;2023-01-26T00:09:15;135.67;;;35.63;;
21046;SDS011;10682;50.874;3.656;2023-01-26T00:11:42;131.97;;;33.93;;
21046;SDS011;10682;50.874;3.656;2023-01-26T00:14:09;138.80;;;35.23;;
21046;SDS011;10682;50.874;3.656;2023-01-26T00:16:39;136.47;;;34.77;;
21046;SDS011;10682;50.874;3.656;2023-01-26T00:19:06;138.53;;;35.37;;
21046;SDS011;10682;50.874;3.656;2023-01-26T00:21:33;141.27;;;35.13;;
21046;SDS011;10682;50.874;3.656;2023-01-26T00:24:00;142.80;;;36.13;;
21046;SDS011;10682;50.874;3.656;2023-01-26T00:26:27;136.30;;;33.90;;
21046;SDS011;10682;50.874;3.656;2023-01-26T00:28:54;122.83;;;34.63;;
21046;SDS011;10682;50.874;3.656;2023-01-26T00:31:22;130.70;;;33.50;;
21046;SDS011;10682;50.874;3.656;2023-01-26T00:33:52;119.63;;;32.40;;
21046;SDS011;10682;50.874;3.656;2023-01-26T00:36:20;106.77;;;30.67;;
21046;SDS011;10682;50.874;3.656;2023-01-26T00:38:48;129.97;;;33.40;;
21046;SDS011;10682;50.874;3.656;2023-01-26T00:41:15;127.43;;;32.87;;
21046;SDS011;10682;50.874;3.656;2023-01-26T00:44:03;117.63;;;30.80;;
21046;SDS011;10682;50.874;3.656;2023-01-26T00:46:30;115.33;;;30.37;;
21046;SDS011;10682;50.874;3.656;2023-01-26T00:48:57;119.23;;;31.43;;
21046;SDS011;10682;50.874;3.656;2023-01-26T00:51:26;118.73;;;30.20;;
21046;SDS011;10682;50.874;3.656;2023-01-26T00:53:53;118.37;;;31.13;;
21046;SDS011;10682;50.874;3.656;2023-01-26T00:56:20;109.63;;;29.20;;
21046;SDS011;10682;50.874;3.656;2023-01-26T00:58:47;109.53;;;30.20;;
21046;SDS011;10682;50.874;3.656;2023-01-26T01:01:17;113.80;;;29.73;;
21046;SDS011;10682;50.874;3.656;2023-01-26T01:03:47;112.07;;;30.40;;
21046;SDS011;10682;50.874;3.656;2023-01-26T01:06:17;109.47;;;28.93;;
21046;SDS011;10682;50.874;3.656;2023-01-26T01:08:44;106.43;;;30.30;;
21046;SDS011;10682;50.874;3.656;2023-01-26T01:11:11;106.80;;;27.87;;
21046;SDS011;10682;50.874;3.656;2023-01-26T01:13:38;114.33;;;30.70;;
21046;SDS011;10682;50.874;3.656;2023-01-26T01:16:07;109.47;;;29.20;;
21046;SDS011;10682;50.874;3.656;2023-01-26T01:18:39;108.87;;;28.37;;
21046;SDS011;10682;50.874;3.656;2023-01-26T01:21:10;106.80;;;29.13;;
21046;SDS011;10682;50.874;3.656;2023-01-26T01:23:43;105.43;;;27.73;;
21046;SDS011;10682;50.874;3.656;2023-01-26T01:26:10;103.07;;;28.67;;
21046;SDS011;10682;50.874;3.656;2023-01-26T01:28:38;102.10;;;28.53;;
21046;SDS011;10682;50.874;3.656;2023-01-26T01:31:08;100.67;;;28.00;;
21046;SDS011;10682;50.874;3.656;2023-01-26T01:33:42;110.43;;;28.93;;
21046;SDS011;10682;50.874;3.656;2023-01-26T01:36:14;101.33;;;27.43;;
21046;SDS011;10682;50.874;3.656;2023-01-26T01:38:43;111.67;;;29.70;;
21046;SDS011;10682;50.874;3.656;2023-01-26T01:41:12;103.63;;;27.13;;
21046;SDS011;10682;50.874;3.656;2023-01-26T01:43:42;105.73;;;29.20;;
21046;SDS011;10682;50.874;3.656;2023-01-26T01:46:29;106.60;;;29.23;;
21046;SDS011;10682;50.874;3.656;2023-01-26T01:49:00;100.00;;;27.83;;
21046;SDS011;10682;50.874;3.656;2023-01-26T01:51:33;98.83;;;28.70;;
21046;SDS011;10682;50.874;3.656;2023-01-26T01:54:09;93.77;;;26.83;;
21046;SDS011;10682;50.874;3.656;2023-01-26T01:56:42;100.03;;;27.67;;
21046;SDS011;10682;50.874;3.656;2023-01-26T01:59:15;88.83;;;26.07;;
21046;SDS011;10682;50.874;3.656;2023-01-26T02:01:49;106.27;;;27.73;;
21046;SDS011;10682;50.874;3.656;2023-01-26T02:04:19;92.07;;;25.97;;
21046;SDS011;10682;50.874;3.656;2023-01-26T02:06:49;87.03;;;25.80;;
21046;SDS011;10682;50.874;3.656;2023-01-26T02:09:29;94.83;;;26.70;;
21046;SDS011;10682;50.874;3.656;2023-01-26T02:12:22;87.53;;;26.23;;
21046;SDS011;10682;50.874;3.656;2023-01-26T02:14:55;89.27;;;25.67;;
21046;SDS011;10682;50.874;3.656;2023-01-26T02:17:30;85.70;;;25.07;;
21046;SDS011;10682;50.874;3.656;2023-01-26T02:28:21;76.03;;;23.00;;
21046;SDS011;10682;50.874;3.656;2023-01-26T02:30:56;80.37;;;22.60;;
21046;SDS011;10682;50.874;3.656;2023-01-26T02:33:25;82.83;;;23.60;;
21046;SDS011;10682;50.874;3.656;2023-01-26T02:35:54;74.37;;;22.73;;
21046;SDS011;10682;50.874;3.656;2023-01-26T02:38:22;73.80;;;22.57;;
21046;SDS011;10682;50.874;3.656;2023-01-26T02:41:00;80.63;;;22.70;;
21046;SDS011;10682;50.874;3.656;2023-01-26T02:43:32;75.13;;;21.67;;
21046;SDS011;10682;50.874;3.656;2023-01-26T02:45:59;80.20;;;23.27;;
21046;SDS011;10682;50.874;3.656;2023-01-26T02:48:26;75.20;;;22.23;;
21046;SDS011;10682;50.874;3.656;2023-01-26T02:51:11;80.53;;;23.17;;
21046;SDS011;10682;50.874;3.656;2023-01-26T02:53:39;87.10;;;24.07;;
21046;SDS011;10682;50.874;3.656;2023-01-26T02:56:06;85.17;;;23.40;;
21046;SDS011;10682;50.874;3.656;2023-01-26T02:58:33;79.70;;;22.73;;
21046;SDS011;10682;50.874;3.656;2023-01-26T03:01:00;84.37;;;22.97;;
21046;SDS011;10682;50.874;3.656;2023-01-26T03:03:27;81.87;;;23.97;;
21046;SDS011;10682;50.874;3.656;2023-01-26T03:06:10;77.13;;;22.97;;
21046;SDS011;10682;50.874;3.656;2023-01-26T03:08:38;79.30;;;22.77;;
21046;SDS011;10682;50.874;3.656;2023-01-26T03:11:06;75.43;;;22.10;;
21046;SDS011;10682;50.874;3.656;2023-01-26T03:13:34;77.17;;;22.37;;
21046;SDS011;10682;50.874;3.656;2023-01-26T03:16:04;76.97;;;21.73;;
21046;SDS011;10682;50.874;3.656;2023-01-26T03:18:33;78.63;;;21.83;;
21046;SDS011;10682;50.874;3.656;2023-01-26T03:21:20;78.33;;;23.20;;
21046;SDS011;10682;50.874;3.656;2023-01-26T03:24:12;78.67;;;22.27;;
21046;SDS011;10682;50.874;3.656;2023-01-26T03:26:59;80.57;;;21.80;;
21046;SDS011;10682;50.874;3.656;2023-01-26T03:29:44;77.77;;;21.00;;
21046;SDS011;10682;50.874;3.656;2023-01-26T03:32:12;80.93;;;21.97;;
21046;SDS011;10682;50.874;3.656;2023-01-26T03:34:39;79.90;;;22.77;;
21046;SDS011;10682;50.874;3.656;2023-01-26T03:37:09;72.40;;;22.20;;
21046;SDS011;10682;50.874;3.656;2023-01-26T03:39:37;82.83;;;23.33;;
21046;SDS011;10682;50.874;3.656;2023-01-26T03:42:22;78.10;;;21.77;;
21046;SDS011;10682;50.874;3.656;2023-01-26T03:45:08;76.03;;;20.97;;
21046;SDS011;10682;50.874;3.656;2023-01-26T03:48:01;68.10;;;19.50;;
21046;SDS011;10682;50.874;3.656;2023-01-26T03:50:55;73.70;;;21.47;;
21046;SDS011;10682;50.874;3.656;2023-01-26T03:53:41;80.87;;;21.90;;
21046;SDS011;10682;50.874;3.656;2023-01-26T03:56:27;74.60;;;22.47;;
21046;SDS011;10682;50.874;3.656;2023-01-26T03:59:00;79.83;;;21.93;;
21046;SDS011;10682;50.874;3.656;2023-01-26T04:01:35;82.50;;;22.77;;
21046;SDS011;10682;50.874;3.656;2023-01-26T04:04:29;80.27;;;23.93;;
21046;SDS011;10682;50.874;3.656;2023-01-26T04:07:15;83.97;;;23.13;;
21046;SDS011;10682;50.874;3.656;2023-01-26T04:10:01;82.43;;;22.87;;
21046;SDS011;10682;50.874;3.656;2023-01-26T04:12:28;87.03;;;22.97;;
21046;SDS011;10682;50.874;3.656;2023-01-26T04:14:58;84.83;;;24.03;;
21046;SDS011;10682;50.874;3.656;2023-01-26T04:17:44;88.13;;;23.03;;
21046;SDS011;10682;50.874;3.656;2023-01-26T04:20:29;81.47;;;22.77;;
21046;SDS011;10682;50.874;3.656;2023-01-26T04:23:18;88.30;;;23.57;;
21046;SDS011;10682;50.874;3.656;2023-01-26T04:25:47;88.50;;;24.40;;
21046;SDS011;10682;50.874;3.656;2023-01-26T04:28:14;102.63;;;24.77;;
21046;SDS011;10682;50.874;3.656;2023-01-26T04:30:41;95.80;;;23.23;;
21046;SDS011;10682;50.874;3.656;2023-01-26T04:33:09;93.80;;;23.13;;
21046;SDS011;10682;50.874;3.656;2023-01-26T04:35:36;90.90;;;24.53;;
21046;SDS011;10682;50.874;3.656;2023-01-26T04:38:03;84.37;;;21.93;;
21046;SDS011;10682;50.874;3.656;2023-01-26T04:40:30;84.70;;;22.93;;
21046;SDS011;10682;50.874;3.656;2023-01-26T04:42:57;82.27;;;23.37;;
21046;SDS011;10682;50.874;3.656;2023-01-26T04:45:24;81.60;;;23.03;;
21046;SDS011;10682;50.874;3.656;2023-01-26T04:47:51;88.63;;;24.63;;
21046;SDS011;10682;50.874;3.656;2023-01-26T04:50:18;87.40;;;23.07;;
21046;SDS011;10682;50.874;3.656;2023-01-26T04:52:45;88.13;;;24.00;;
21046;SDS011;10682;50.874;3.656;2023-01-26T04:55:12;92.50;;;24.43;;
21046;SDS011;10682;50.874;3.656;2023-01-26T04:57:40;79.30;;;23.33;;
21046;SDS011;10682;50.874;3.656;2023-01-26T05:00:08;82.67;;;23.60;;
21046;SDS011;10682;50.874;3.656;2023-01-26T05:02:37;76.43;;;21.60;;
21046;SDS011;10682;50.874;3.656;2023-01-26T05:05:06;83.43;;;22.70;;
21046;SDS011;10682;50.874;3.656;2023-01-26T05:07:33;85.87;;;24.13;;
21046;SDS011;10682;50.874;3.656;2023-01-26T05:10:00;86.80;;;24.37;;
21046;SDS011;10682;50.874;3.656;2023-01-26T05:12:27;85.57;;;23.93;;
21046;SDS011;10682;50.874;3.656;2023-01-26T05:18:40;82.73;;;23.53;;
21046;SDS011;10682;50.874;3.656;2023-01-26T05:21:07;80.90;;;21.77;;
21046;SDS011;10682;50.874;3.656;2023-01-26T05:23:38;83.03;;;22.93;;
21046;SDS011;10682;50.874;3.656;2023-01-26T05:26:05;85.37;;;23.90;;
21046;SDS011;10682;50.874;3.656;2023-01-26T05:28:38;87.97;;;23.73;;
21046;SDS011;10682;50.874;3.656;2023-01-26T05:31:05;85.33;;;24.57;;
21046;SDS011;10682;50.874;3.656;2023-01-26T05:33:32;80.37;;;24.07;;
21046;SDS011;10682;50.874;3.656;2023-01-26T05:36:02;75.33;;;22.40;;
21046;SDS011;10682;50.874;3.656;2023-01-26T05:38:33;77.80;;;22.17;;
21046;SDS011;10682;50.874;3.656;2023-01-26T05:41:01;89.83;;;23.37;;
21046;SDS011;10682;50.874;3.656;2023-01-26T05:43:31;72.80;;;21.90;;
21046;SDS011;10682;50.874;3.656;2023-01-26T05:45:58;75.47;;;22.70;;
21046;SDS011;10682;50.874;3.656;2023-01-26T05:48:26;76.47;;;22.57;;
21046;SDS011;10682;50.874;3.656;2023-01-26T05:50:54;72.00;;;21.53;;
21046;SDS011;10682;50.874;3.656;2023-01-26T05:53:24;81.23;;;22.97;;
21046;SDS011;10682;50.874;3.656;2023-01-26T05:55:51;77.53;;;22.90;;
21046;SDS011;10682;50.874;3.656;2023-01-26T05:58:25;78.30;;;22.23;;
21046;SDS011;10682;50.874;3.656;2023-01-26T06:00:55;76.30;;;22.00;;
21046;SDS011;10682;50.874;3.656;2023-01-26T06:03:22;75.00;;;21.40;;
21046;SDS011;10682;50.874;3.656;2023-01-26T06:05:53;73.50;;;22.53;;
21046;SDS011;10682;50.874;3.656;2023-01-26T06:08:24;76.33;;;22.87;;
21046;SDS011;10682;50.874;3.656;2023-01-26T06:10:51;74.27;;;22.23;;
21046;SDS011;10682;50.874;3.656;2023-01-26T06:13:26;70.93;;;21.37;;
21046;SDS011;10682;50.874;3.656;2023-01-26T06:15:53;70.37;;;21.97;;
21046;SDS011;10682;50.874;3.656;2023-01-26T06:18:20;71.07;;;21.73;;
21046;SDS011;10682;50.874;3.656;2023-01-26T06:20:49;68.70;;;19.67;;
21046;SDS011;10682;50.874;3.656;2023-01-26T06:23:16;69.30;;;20.00;;
21046;SDS011;10682;50.874;3.656;2023-01-26T06:25:43;61.93;;;19.23;;
21046;SDS011;10682;50.874;3.656;2023-01-26T06:28:10;62.17;;;18.67;;
21046;SDS011;10682;50.874;3.656;2023-01-26T06:30:37;57.30;;;18.33;;
21046;SDS011;10682;50.874;3.656;2023-01-26T06:33:04;59.57;;;19.33;;
21046;SDS011;10682;50.874;3.656;2023-01-26T06:35:32;60.27;;;18.97;;
21046;SDS011;10682;50.874;3.656;2023-01-26T06:38:01;53.83;;;18.70;;
21046;SDS011;10682;50.874;3.656;2023-01-26T06:40:29;58.70;;;18.30;;
21046;SDS011;10682;50.874;3.656;2023-01-26T06:42:55;59.80;;;19.87;;
21046;SDS011;10682;50.874;3.656;2023-01-26T06:45:23;57.23;;;18.90;;
21046;SDS011;10682;50.874;3.656;2023-01-26T06:47:50;63.70;;;19.77;;
21046;SDS011;10682;50.874;3.656;2023-01-26T06:50:20;55.50;;;19.00;;
21046;SDS011;10682;50.874;3.656;2023-01-26T06:52:55;55.03;;;18.10;;
21046;SDS011;10682;50.874;3.656;2023-01-26T06:55:33;54.93;;;19.37;;
21046;SDS011;10682;50.874;3.656;2023-01-26T06:58:04;54.23;;;18.80;;
21046;SDS011;10682;50.874;3.656;2023-01-26T07:00:34;54.80;;;19.23;;
21046;SDS011;10682;50.874;3.656;2023-01-26T07:03:02;58.97;;;19.50;;
21046;SDS011;10682;50.874;3.656;2023-01-26T07:05:31;56.67;;;19.10;;
21046;SDS011;10682;50.874;3.656;2023-01-26T07:07:59;53.87;;;18.27;;
21046;SDS011;10682;50.874;3.656;2023-01-26T07:10:30;54.27;;;18.93;;
21046;SDS011;10682;50.874;3.656;2023-01-26T07:12:57;60.83;;;19.53;;
21046;SDS011;10682;50.874;3.656;2023-01-26T07:15:24;53.50;;;18.97;;
21046;SDS011;10682;50.874;3.656;2023-01-26T07:17:51;59.63;;;19.33;;
21046;SDS011;10682;50.874;3.656;2023-01-26T07:20:19;55.43;;;19.70;;
21046;SDS011;10682;50.874;3.656;2023-01-26T07:22:48;60.07;;;19.53;;
21046;SDS011;10682;50.874;3.656;2023-01-26T07:25:16;55.30;;;19.37;;
21046;SDS011;10682;50.874;3.656;2023-01-26T07:27:44;56.23;;;19.13;;
21046;SDS011;10682;50.874;3.656;2023-01-26T07:30:12;54.43;;;18.50;;
21046;SDS011;10682;50.874;3.656;2023-01-26T07:32:40;59.50;;;19.40;;
21046;SDS011;10682;50.874;3.656;2023-01-26T07:35:08;49.67;;;17.83;;
21046;SDS011;10682;50.874;3.656;2023-01-26T07:37:35;56.00;;;18.63;;
21046;SDS011;10682;50.874;3.656;2023-01-26T07:40:02;53.60;;;19.43;;
21046;SDS011;10682;50.874;3.656;2023-01-26T07:42:31;51.00;;;18.33;;
21046;SDS011;10682;50.874;3.656;2023-01-26T07:44:58;56.40;;;18.77;;
21046;SDS011;10682;50.874;3.656;2023-01-26T07:47:25;59.07;;;18.00;;
21046;SDS011;10682;50.874;3.656;2023-01-26T07:49:52;49.40;;;16.87;;
21046;SDS011;10682;50.874;3.656;2023-01-26T07:52:19;51.30;;;18.40;;
21046;SDS011;10682;50.874;3.656;2023-01-26T07:54:46;58.50;;;18.60;;
21046;SDS011;10682;50.874;3.656;2023-01-26T07:57:13;50.80;;;17.27;;
21046;SDS011;10682;50.874;3.656;2023-01-26T07:59:40;54.43;;;18.50;;
21046;SDS011;10682;50.874;3.656;2023-01-26T08:02:08;56.60;;;19.13;;
21046;SDS011;10682;50.874;3.656;2023-01-26T08:04:36;52.50;;;18.17;;
21046;SDS011;10682;50.874;3.656;2023-01-26T08:07:03;57.47;;;18.40;;
21046;SDS011;10682;50.874;3.656;2023-01-26T08:09:30;58.80;;;18.87;;
21046;SDS011;10682;50.874;3.656;2023-01-26T08:11:57;51.70;;;17.83;;
21046;SDS011;10682;50.874;3.656;2023-01-26T08:14:24;52.97;;;18.00;;
21046;SDS011;10682;50.874;3.656;2023-01-26T08:17:10;53.17;;;17.73;;
21046;SDS011;10682;50.874;3.656;2023-01-26T08:19:37;51.27;;;18.03;;
21046;SDS011;10682;50.874;3.656;2023-01-26T08:22:04;47.43;;;16.73;;
21046;SDS011;10682;50.874;3.656;2023-01-26T08:24:31;52.93;;;18.20;;
21046;SDS011;10682;50.874;3.656;2023-01-26T08:26:58;57.27;;;19.47;;
21046;SDS011;10682;50.874;3.656;2023-01-26T08:29:25;48.43;;;17.57;;
21046;SDS011;10682;50.874;3.656;2023-01-26T08:31:52;52.77;;;18.13;;
21046;SDS011;10682;50.874;3.656;2023-01-26T08:34:19;51.90;;;19.00;;
21046;SDS011;10682;50.874;3.656;2023-01-26T08:36:47;46.30;;;17.53;;
21046;SDS011;10682;50.874;3.656;2023-01-26T08:39:14;50.80;;;19.63;;
21046;SDS011;10682;50.874;3.656;2023-01-26T08:41:42;50.13;;;19.00;;
21046;SDS011;10682;50.874;3.656;2023-01-26T08:44:09;55.43;;;20.70;;
21046;SDS011;10682;50.874;3.656;2023-01-26T08:46:36;55.67;;;21.43;;
21046;SDS011;10682;50.874;3.656;2023-01-26T08:49:03;60.27;;;20.20;;
21046;SDS011;10682;50.874;3.656;2023-01-26T08:51:30;56.43;;;21.07;;
21046;SDS011;10682;50.874;3.656;2023-01-26T08:53:57;57.43;;;20.03;;
21046;SDS011;10682;50.874;3.656;2023-01-26T08:56:24;54.97;;;20.70;;
21046;SDS011;10682;50.874;3.656;2023-01-26T08:58:51;56.07;;;21.03;;
21046;SDS011;10682;50.874;3.656;2023-01-26T09:01:18;56.23;;;21.43;;
21046;SDS011;10682;50.874;3.656;2023-01-26T09:03:45;60.20;;;21.70;;
21046;SDS011;10682;50.874;3.656;2023-01-26T09:06:12;67.80;;;21.73;;
21046;SDS011;10682;50.874;3.656;2023-01-26T09:08:41;66.60;;;20.33;;
21046;SDS011;10682;50.874;3.656;2023-01-26T09:11:08;63.47;;;21.67;;
21046;SDS011;10682;50.874;3.656;2023-01-26T09:13:39;59.20;;;21.77;;
21046;SDS011;10682;50.874;3.656;2023-01-26T09:16:07;72.33;;;23.50;;
21046;SDS011;10682;50.874;3.656;2023-01-26T09:18:41;69.03;;;22.47;;
21046;SDS011;10682;50.874;3.656;2023-01-26T09:21:08;75.63;;;23.70;;
21046;SDS011;10682;50.874;3.656;2023-01-26T09:23:35;69.37;;;23.10;;
21046;SDS011;10682;50.874;3.656;2023-01-26T09:26:03;70.67;;;23.43;;
21046;SDS011;10682;50.874;3.656;2023-01-26T09:28:30;75.40;;;25.03;;
21046;SDS011;10682;50.874;3.656;2023-01-26T09:31:08;85.67;;;26.73;;
21046;SDS011;10682;50.874;3.656;2023-01-26T09:33:36;68.30;;;25.30;;
21046;SDS011;10682;50.874;3.656;2023-01-26T09:36:04;74.07;;;24.53;;
21046;SDS011;10682;50.874;3.656;2023-01-26T09:38:34;87.47;;;27.53;;
21046;SDS011;10682;50.874;3.656;2023-01-26T09:44:22;74.50;;;23.97;;
21046;SDS011;10682;50.874;3.656;2023-01-26T09:50:06;68.73;;;22.03;;
21046;SDS011;10682;50.874;3.656;2023-01-26T09:52:45;66.63;;;22.50;;
21046;SDS011;10682;50.874;3.656;2023-01-26T09:55:18;65.27;;;22.67;;
21046;SDS011;10682;50.874;3.656;2023-01-26T09:57:58;78.07;;;26.03;;
21046;SDS011;10682;50.874;3.656;2023-01-26T10:00:29;80.40;;;24.23;;
21046;SDS011;10682;50.874;3.656;2023-01-26T10:03:08;73.83;;;24.37;;
21046;SDS011;10682;50.874;3.656;2023-01-26T10:06:14;81.37;;;25.43;;
21046;SDS011;10682;50.874;3.656;2023-01-26T10:08:51;71.97;;;23.70;;
21046;SDS011;10682;50.874;3.656;2023-01-26T10:11:26;81.27;;;25.13;;
21046;SDS011;10682;50.874;3.656;2023-01-26T10:16:47;70.57;;;23.03;;
21046;SDS011;10682;50.874;3.656;2023-01-26T10:22:04;69.13;;;24.67;;
21046;SDS011;10682;50.874;3.656;2023-01-26T10:24:39;71.23;;;24.13;;
21046;SDS011;10682;50.874;3.656;2023-01-26T10:27:09;69.93;;;23.40;;
21046;SDS011;10682;50.874;3.656;2023-01-26T10:29:39;47.80;;;13.73;;
21046;SDS011;10682;50.874;3.656;2023-01-26T10:32:11;52.53;;;10.67;;
21046;SDS011;10682;50.874;3.656;2023-01-26T10:34:44;45.80;;;9.97;;
21046;SDS011;10682;50.874;3.656;2023-01-26T10:37:20;49.17;;;9.93;;
21046;SDS011;10682;50.874;3.656;2023-01-26T10:40:05;56.10;;;10.40;;
21046;SDS011;10682;50.874;3.656;2023-01-26T10:42:36;39.67;;;8.07;;
21046;SDS011;10682;50.874;3.656;2023-01-26T10:45:26;42.53;;;8.47;;
21046;SDS011;10682;50.874;3.656;2023-01-26T10:48:02;44.93;;;7.90;;
21046;SDS011;10682;50.874;3.656;2023-01-26T10:50:35;31.83;;;5.97;;
21046;SDS011;10682;50.874;3.656;2023-01-26T10:53:10;33.50;;;6.00;;
21046;SDS011;10682;50.874;3.656;2023-01-26T10:55:56;32.87;;;6.40;;
21046;SDS011;10682;50.874;3.656;2023-01-26T11:01:06;37.13;;;6.90;;
21046;SDS011;10682;50.874;3.656;2023-01-26T11:03:38;38.93;;;5.93;;
21046;SDS011;10682;50.874;3.656;2023-01-26T11:06:15;36.27;;;6.37;;
21046;SDS011;10682;50.874;3.656;2023-01-26T11:08:43;33.77;;;4.60;;
21046;SDS011;10682;50.874;3.656;2023-01-26T11:11:24;32.20;;;4.30;;
21046;SDS011;10682;50.874;3.656;2023-01-26T11:14:08;31.30;;;3.83;;
21046;SDS011;10682;50.874;3.656;2023-01-26T11:16:49;23.47;;;3.77;;
21046;SDS011;10682;50.874;3.656;2023-01-26T11:19:39;24.73;;;3.60;;
21046;SDS011;10682;50.874;3.656;2023-01-26T11:25:14;27.93;;;4.33;;
21046;SDS011;10682;50.874;3.656;2023-01-26T11:42:12;23.13;;;3.37;;
21046;SDS011;10682;50.874;3.656;2023-01-26T11:53:30;22.20;;;3.10;;
21046;SDS011;10682;50.874;3.656;2023-01-26T11:56:26;29.77;;;3.97;;
21046;SDS011;10682;50.874;3.656;2023-01-26T11:59:39;27.30;;;4.90;;
21046;SDS011;10682;50.874;3.656;2023-01-26T12:04:48;32.60;;;4.97;;
21046;SDS011;10682;50.874;3.656;2023-01-26T12:07:20;26.20;;;4.83;;
21046;SDS011;10682;50.874;3.656;2023-01-26T12:10:44;27.77;;;5.00;;
21046;SDS011;10682;50.874;3.656;2023-01-26T12:13:45;37.10;;;5.90;;
21046;SDS011;10682;50.874;3.656;2023-01-26T12:22:27;23.23;;;4.30;;
21046;SDS011;10682;50.874;3.656;2023-01-26T12:25:13;27.53;;;4.17;;
21046;SDS011;10682;50.874;3.656;2023-01-26T12:33:45;19.03;;;3.13;;
21046;SDS011;10682;50.874;3.656;2023-01-26T12:39:15;19.27;;;3.10;;
21046;SDS011;10682;50.874;3.656;2023-01-26T12:44:45;17.17;;;3.00;;
21046;SDS011;10682;50.874;3.656;2023-01-26T12:47:27;26.07;;;3.60;;
21046;SDS011;10682;50.874;3.656;2023-01-26T12:52:56;18.83;;;2.87;;
21046;SDS011;10682;50.874;3.656;2023-01-26T12:55:43;17.17;;;3.20;;
21046;SDS011;10682;50.874;3.656;2023-01-26T12:58:23;13.33;;;2.73;;
21046;SDS011;10682;50.874;3.656;2023-01-26T13:01:08;19.80;;;2.43;;
21046;SDS011;10682;50.874;3.656;2023-01-26T13:03:49;19.27;;;2.87;;
21046;SDS011;10682;50.874;3.656;2023-01-26T13:06:22;23.30;;;3.17;;
21046;SDS011;10682;50.874;3.656;2023-01-26T13:24:56;18.43;;;2.87;;
21046;SDS011;10682;50.874;3.656;2023-01-26T13:27:40;25.87;;;3.60;;
21046;SDS011;10682;50.874;3.656;2023-01-26T13:30:28;23.80;;;3.03;;
21046;SDS011;10682;50.874;3.656;2023-01-26T13:33:11;24.77;;;3.53;;
21046;SDS011;10682;50.874;3.656;2023-01-26T13:35:44;25.20;;;4.20;;
21046;SDS011;10682;50.874;3.656;2023-01-26T13:41:16;23.90;;;3.13;;
21046;SDS011;10682;50.874;3.656;2023-01-26T13:43:53;25.47;;;3.00;;
21046;SDS011;10682;50.874;3.656;2023-01-26T13:47:38;24.40;;;3.20;;
21046;SDS011;10682;50.874;3.656;2023-01-26T13:49:47;18.77;;;3.30;;
21046;SDS011;10682;50.874;3.656;2023-01-26T13:54:45;22.73;;;3.00;;
21046;SDS011;10682;50.874;3.656;2023-01-26T13:57:22;29.53;;;3.60;;
21046;SDS011;10682;50.874;3.656;2023-01-26T13:59:58;21.13;;;3.17;;
21046;SDS011;10682;50.874;3.656;2023-01-26T14:02:27;14.30;;;3.37;;
21046;SDS011;10682;50.874;3.656;2023-01-26T14:04:57;24.10;;;3.30;;
21046;SDS011;10682;50.874;3.656;2023-01-26T14:07:27;23.63;;;4.03;;
21046;SDS011;10682;50.874;3.656;2023-01-26T14:10:06;20.03;;;3.10;;
21046;SDS011;10682;50.874;3.656;2023-01-26T14:12:42;20.03;;;2.97;;
21046;SDS011;10682;50.874;3.656;2023-01-26T14:15:24;26.93;;;3.80;;
21046;SDS011;10682;50.874;3.656;2023-01-26T14:17:57;20.53;;;3.70;;
21046;SDS011;10682;50.874;3.656;2023-01-26T14:25:45;20.50;;;3.80;;
21046;SDS011;10682;50.874;3.656;2023-01-26T14:28:13;17.87;;;3.40;;
21046;SDS011;10682;50.874;3.656;2023-01-26T14:30:42;20.60;;;3.27;;
21046;SDS011;10682;50.874;3.656;2023-01-26T14:33:14;24.97;;;4.73;;
21046;SDS011;10682;50.874;3.656;2023-01-26T14:35:53;18.07;;;3.83;;
21046;SDS011;10682;50.874;3.656;2023-01-26T14:38:23;27.17;;;5.30;;
21046;SDS011;10682;50.874;3.656;2023-01-26T14:40:54;26.40;;;4.57;;
21046;SDS011;10682;50.874;3.656;2023-01-26T14:43:24;19.70;;;4.50;;
21046;SDS011;10682;50.874;3.656;2023-01-26T14:46:06;22.30;;;4.17;;
21046;SDS011;10682;50.874;3.656;2023-01-26T14:48:49;32.83;;;4.33;;
21046;SDS011;10682;50.874;3.656;2023-01-26T14:51:41;14.63;;;3.20;;
21046;SDS011;10682;50.874;3.656;2023-01-26T14:56:58;24.67;;;3.23;;
21046;SDS011;10682;50.874;3.656;2023-01-26T14:59:35;20.07;;;2.83;;
21046;SDS011;10682;50.874;3.656;2023-01-26T15:02:13;16.70;;;3.00;;
21046;SDS011;10682;50.874;3.656;2023-01-26T15:04:57;16.43;;;2.73;;
21046;SDS011;10682;50.874;3.656;2023-01-26T15:07:31;17.77;;;2.77;;
21046;SDS011;10682;50.874;3.656;2023-01-26T15:10:28;16.97;;;3.27;;
21046;SDS011;10682;50.874;3.656;2023-01-26T15:13:22;23.27;;;3.80;;
21046;SDS011;10682;50.874;3.656;2023-01-26T15:16:01;22.33;;;4.10;;
21046;SDS011;10682;50.874;3.656;2023-01-26T15:18:31;19.30;;;3.90;;
21046;SDS011;10682;50.874;3.656;2023-01-26T15:21:13;21.37;;;3.50;;
21046;SDS011;10682;50.874;3.656;2023-01-26T15:23:45;24.83;;;3.87;;
21046;SDS011;10682;50.874;3.656;2023-01-26T15:28:56;22.03;;;3.00;;
21046;SDS011;10682;50.874;3.656;2023-01-26T15:31:29;15.37;;;3.37;;
21046;SDS011;10682;50.874;3.656;2023-01-26T15:34:03;18.53;;;3.27;;
21046;SDS011;10682;50.874;3.656;2023-01-26T15:39:17;10.43;;;2.30;;
21046;SDS011;10682;50.874;3.656;2023-01-26T15:41:55;15.23;;;3.00;;
21046;SDS011;10682;50.874;3.656;2023-01-26T15:44:39;19.30;;;2.97;;
21046;SDS011;10682;50.874;3.656;2023-01-26T15:47:10;17.37;;;2.53;;
21046;SDS011;10682;50.874;3.656;2023-01-26T15:49:38;11.27;;;2.30;;
21046;SDS011;10682;50.874;3.656;2023-01-26T15:52:12;18.17;;;2.87;;
21046;SDS011;10682;50.874;3.656;2023-01-26T15:54:45;13.23;;;3.07;;
21046;SDS011;10682;50.874;3.656;2023-01-26T15:57:12;11.30;;;2.57;;
21046;SDS011;10682;50.874;3.656;2023-01-26T15:59:39;17.23;;;2.40;;
21046;SDS011;10682;50.874;3.656;2023-01-26T16:02:11;10.70;;;2.77;;
21046;SDS011;10682;50.874;3.656;2023-01-26T16:04:50;20.90;;;3.50;;
21046;SDS011;10682;50.874;3.656;2023-01-26T16:07:17;18.50;;;4.20;;
21046;SDS011;10682;50.874;3.656;2023-01-26T16:09:44;19.13;;;4.37;;
21046;SDS011;10682;50.874;3.656;2023-01-26T16:12:14;16.93;;;2.57;;
21046;SDS011;10682;50.874;3.656;2023-01-26T16:14:59;18.10;;;2.97;;
21046;SDS011;10682;50.874;3.656;2023-01-26T16:17:26;14.57;;;2.40;;
21046;SDS011;10682;50.874;3.656;2023-01-26T16:19:54;16.87;;;2.60;;
21046;SDS011;10682;50.874;3.656;2023-01-26T16:22:21;20.27;;;2.90;;
21046;SDS011;10682;50.874;3.656;2023-01-26T16:24:47;25.40;;;2.50;;
21046;SDS011;10682;50.874;3.656;2023-01-26T16:27:14;16.53;;;2.40;;
21046;SDS011;10682;50.874;3.656;2023-01-26T16:29:42;17.60;;;2.53;;
21046;SDS011;10682;50.874;3.656;2023-01-26T16:32:28;20.97;;;2.50;;
21046;SDS011;10682;50.874;3.656;2023-01-26T16:34:55;16.37;;;2.50;;
21046;SDS011;10682;50.874;3.656;2023-01-26T16:37:22;19.17;;;2.47;;
21046;SDS011;10682;50.874;3.656;2023-01-26T16:39:49;21.07;;;2.47;;
21046;SDS011;10682;50.874;3.656;2023-01-26T16:42:16;14.40;;;2.23;;
21046;SDS011;10682;50.874;3.656;2023-01-26T16:44:46;24.13;;;2.50;;
21046;SDS011;10682;50.874;3.656;2023-01-26T16:47:13;12.83;;;2.70;;